Time;durP1;ratioP1;P1;durP2;ratioP2;P2;SDS_P1;SDS_P2;PMS_P1;PMS_P2;Temp;Humidity;BMP_temperature;BMP_pressure;BME280_temperature;BME280_humidity;BME280_pressure;Samples;Min_cycle;Max_cycle;Signal;HPM_P1;HPM_P2
2022/09/05 00:22:25;;;;;;;;;;;;;;;;;;2256089;54;1864;-73
2022/09/05 00:25:05;;;;;;;;;;;;;;;;;;2208802;67;1306;-72
2022/09/05 00:27:43;;;;;;;;;;;;;;;;;;2209901;59;1714;-73
2022/09/05 00:30:17;;;;;;;;;;;;;;;;;;2209536;67;1290;-73
2022/09/05 00:32:58;;;;;;;;;;;;;;;;;;2209790;59;2359;-72
2022/09/05 00:46:16;;;;;;;;;;;;;;;;;;2265745;53;1843;-73
2022/09/05 00:48:53;;;;;;;;;;;;;;;;;;2208845;67;1144;-73
2022/09/05 00:51:32;;;;;;;;;;;;;;;;;;2210729;67;1246;-72
2022/09/05 00:54:13;;;;;;;;;;;;;;;;;;2206782;67;1937;-73
2022/09/05 00:57:01;;;;;;;;;;;;;;;;;;2207974;67;1191;-73
2022/09/05 00:59:43;;;;;;;;;;;;;;;;;;2208423;59;1057;-72
2022/09/05 01:02:27;;;;;;;;;;;;;;;;;;2208321;67;1193;-73
2022/09/05 01:05:04;;;;;;;;;;;;;;;;;;2208916;59;1418;-72
2022/09/05 01:07:46;;;;;;;;;;;;;;;;;;2204881;67;1092;-73
2022/09/05 01:10:23;;;;;;;;;;;;;;;;;;2208324;67;1251;-73
2022/09/05 01:13:09;;;;;;;;;;;;;;;;;;2208757;67;1461;-73
2022/09/05 01:15:48;;;;;;;;;;;;;;;;;;2208707;67;1932;-73
2022/09/05 01:18:31;;;;;;;;;;;;;;;;;;2209053;59;1235;-73
2022/09/05 01:21:34;;;;;;;;;;;;;;;;;;2209443;67;1374;-73
2022/09/05 01:24:28;;;;;;;;;;;;;;;;;;2209388;59;1133;-73
2022/09/05 01:27:20;;;;;;;;;;;;;;;;;;2209353;59;2092;-73
2022/09/05 01:29:59;;;;;;;;;;;;;;;;;;2208879;59;1196;-73
2022/09/05 01:32:38;;;;;;;;;;;;;;;;;;2209018;67;1555;-73
2022/09/05 01:35:30;;;;;;;;;;;;;;;;;;2208751;59;1920;-73
2022/09/05 01:38:07;;;;;;;;;;;;;;;;;;2208846;67;1302;-72
2022/09/05 01:40:46;;;;;;;;;;;;;;;;;;2208448;67;1240;-73
2022/09/05 01:43:22;;;;;;;;;;;;;;;;;;2208327;59;1214;-73
2022/09/05 01:46:01;;;;;;;;;;;;;;;;;;2208564;59;1255;-73
2022/09/05 01:48:37;;;;;;;;;;;;;;;;;;2204586;59;1251;-73
2022/09/05 01:51:15;;;;;;;;;;;;;;;;;;2208410;59;1132;-72
2022/09/05 01:53:52;;;;;;;;;;;;;;;;;;2207523;59;1113;-73
2022/09/05 01:56:35;;;;;;;;;;;;;;;;;;2208101;59;1221;-72
2022/09/05 01:59:24;;;;;;;;;;;;;;;;;;2208225;67;1284;-72
2022/09/05 02:02:17;;;;;;;;;;;;;;;;;;2208193;59;1244;-72
2022/09/05 02:05:04;;;;;;;;;;;;;;;;;;2208366;59;1322;-72
2022/09/05 02:07:47;;;;;;;;;;;;;;;;;;2208571;67;1276;-72
2022/09/05 02:10:42;;;;;;;;;;;;;;;;;;2208317;67;1215;-72
2022/09/05 02:13:20;;;;;;;;;;;;;;;;;;2208346;59;1581;-72
2022/09/05 02:15:58;;;;;;;;;;;;;;;;;;2207735;59;1931;-72
2022/09/05 02:18:45;;;;;;;;;;;;;;;;;;2207403;67;1253;-73
2022/09/05 02:21:23;;;;;;;;;;;;;;;;;;2208175;67;1274;-72
2022/09/05 02:24:04;;;;;;;;;;;;;;;;;;2207668;67;1110;-72
2022/09/05 02:26:41;;;;;;;;;;;;;;;;;;2207507;59;1596;-73
2022/09/05 02:29:18;;;;;;;;;;;;;;;;;;2206659;59;1499;-72
2022/09/05 02:31:54;;;;;;;;;;;;;;;;;;2207660;67;1133;-72
2022/09/05 02:34:35;;;;;;;;;;;;;;;;;;2208044;67;1933;-73
2022/09/05 02:37:13;;;;;;;;;;;;;;;;;;2208409;59;1280;-73
2022/09/05 02:39:48;;;;;;;;;;;;;;;;;;2209228;67;1204;-73
2022/09/05 02:42:24;;;;;;;;;;;;;;;;;;2208627;59;1239;-73
2022/09/05 02:45:03;;;;;;;;;;;;;;;;;;2208739;59;1259;-73
2022/09/05 02:47:41;;;;;;;;;;;;;;;;;;2208704;59;1201;-73
2022/09/05 02:50:31;;;;;;;;;;;;;;;;;;2209294;67;1245;-73
2022/09/05 02:53:06;;;;;;;;;;;;;;;;;;2208487;67;1109;-73
2022/09/05 02:55:48;;;;;;;;;;;;;;;;;;2208308;67;1933;-73
2022/09/05 02:58:31;;;;;;;;;;;;;;;;;;2208648;67;1189;-72
2022/09/05 03:01:10;;;;;;;;;;;;;;;;;;2208594;59;1194;-73
2022/09/05 03:03:49;;;;;;;;;;;;;;;;;;2208566;59;2734;-73
2022/09/05 03:06:31;;;;;;;;;;;;;;;;;;2208537;59;1352;-73
2022/09/05 03:09:18;;;;;;;;;;;;;;;;;;2208447;59;1466;-72
2022/09/05 03:12:14;;;;;;;;;;;;;;;;;;2208756;59;1250;-73
2022/09/05 03:15:20;;;;;;;;;;;;;;;;;;2208428;60;1905;-73
2022/09/05 03:18:14;;;;;;;;;;;;;;;;;;2196511;59;1258;-72
2022/09/05 03:21:00;;;;;;;;;;;;;;;;;;2196763;59;1356;-72
2022/09/05 03:23:49;;;;;;;;;;;;;;;;;;2206328;67;1182;-72
2022/09/05 03:26:40;;;;;;;;;;;;;;;;;;2208903;59;1635;-73
2022/09/05 03:29:26;;;;;;;;;;;;;;;;;;2208352;59;1630;-73
2022/09/05 03:32:11;;;;;;;;;;;;;;;;;;2209082;67;1180;-72
2022/09/05 03:34:54;;;;;;;;;;;;;;;;;;2208384;67;1936;-73
2022/09/05 03:37:43;;;;;;;;;;;;;;;;;;2209127;59;1278;-73
2022/09/05 03:40:35;;;;;;;;;;;;;;;;;;2208663;67;1160;-73
2022/09/05 03:43:24;;;;;;;;;;;;;;;;;;2209249;59;1100;-73
2022/09/05 03:46:04;;;;;;;;;;;;;;;;;;2208964;59;1248;-72
2022/09/05 03:48:49;;;;;;;;;;;;;;;;;;2209554;67;1231;-72
2022/09/05 03:51:40;;;;;;;;;;;;;;;;;;2208377;67;1246;-72
2022/09/05 03:54:31;;;;;;;;;;;;;;;;;;2208988;67;1141;-73
2022/09/05 03:57:15;;;;;;;;;;;;;;;;;;2208864;67;2092;-73
2022/09/05 03:59:54;;;;;;;;;;;;;;;;;;2208735;59;1133;-73
2022/09/05 04:02:29;;;;;;;;;;;;;;;;;;2210570;59;1121;-73
2022/09/05 04:05:06;;;;;;;;;;;;;;;;;;2209270;59;1276;-73
2022/09/05 04:07:43;;;;;;;;;;;;;;;;;;2209436;67;1062;-73
2022/09/05 04:10:28;;;;;;;;;;;;;;;;;;2209381;67;1221;-73
2022/09/05 04:13:07;;;;;;;;;;;;;;;;;;2208487;59;1335;-73
2022/09/05 04:15:42;;;;;;;;;;;;;;;;;;2208262;67;1933;-72
2022/09/05 04:18:25;;;;;;;;;;;;;;;;;;2209375;59;2342;-73
2022/09/05 04:21:01;;;;;;;;;;;;;;;;;;2211074;59;1569;-72
2022/09/05 04:23:38;;;;;;;;;;;;;;;;;;2208514;67;1316;-73
2022/09/05 04:26:19;;;;;;;;;;;;;;;;;;2209891;59;1548;-73
2022/09/05 04:29:02;;;;;;;;;;;;;;;;;;2209542;59;1421;-73
2022/09/05 04:31:45;;;;;;;;;;;;;;;;;;2210333;67;1308;-73
2022/09/05 04:34:41;;;;;;;;;;;;;;;;;;2210061;67;1176;-73
2022/09/05 04:37:33;;;;;;;;;;;;;;;;;;2209361;59;1564;-73
2022/09/05 04:40:21;;;;;;;;;;;;;;;;;;2207705;67;1210;-72
2022/09/05 04:42:54;;;;;;;;;;;;;;;;;;2208640;60;1441;-73
2022/09/05 04:45:35;;;;;;;;;;;;;;;;;;2209317;59;1243;-72
2022/09/05 04:48:11;;;;;;;;;;;;;;;;;;2208506;59;1589;-72
2022/09/05 04:50:52;;;;;;;;;;;;;;;;;;2205249;67;1884;-72
2022/09/05 04:53:36;;;;;;;;;;;;;;;;;;2206774;67;1271;-72
2022/09/05 04:56:13;;;;;;;;;;;;;;;;;;2209101;59;1975;-73
2022/09/05 04:58:52;;;;;;;;;;;;;;;;;;2207139;67;2007;-72
2022/09/05 05:01:30;;;;;;;;;;;;;;;;;;2209177;67;1209;-72
2022/09/05 05:04:07;;;;;;;;;;;;;;;;;;2209496;59;1217;-72
2022/09/05 05:06:42;;;;;;;;;;;;;;;;;;2209136;67;1221;-72
2022/09/05 05:09:20;;;;;;;;;;;;;;;;;;2209088;67;1144;-72
2022/09/05 05:11:57;;;;;;;;;;;;;;;;;;2209150;59;1112;-72
2022/09/05 05:14:33;;;;;;;;;;;;;;;;;;2206574;67;1982;-72
2022/09/05 05:17:12;;;;;;;;;;;;;;;;;;2208038;67;1948;-72
2022/09/05 05:19:47;;;;;;;;;;;;;;;;;;2208910;67;1152;-72
2022/09/05 05:22:20;;;;;;;;;;;;;;;;;;2208969;59;1261;-72
2022/09/05 05:24:56;;;;;;;;;;;;;;;;;;2208508;67;1280;-72
2022/09/05 05:27:33;;;;;;;;;;;;;;;;;;2205960;59;1634;-72
2022/09/05 05:30:07;;;;;;;;;;;;;;;;;;2205706;67;1589;-72
2022/09/05 05:32:50;;;;;;;;;;;;;;;;;;2208554;59;1076;-73
2022/09/05 05:35:26;;;;;;;;;;;;;;;;;;2209039;67;2011;-72
2022/09/05 05:38:05;;;;;;;;;;;;;;;;;;2206224;67;1218;-72
2022/09/05 05:40:40;;;;;;;;;;;;;;;;;;2209173;67;1123;-72
2022/09/05 05:43:17;;;;;;;;;;;;;;;;;;2206858;67;1297;-72
2022/09/05 05:45:57;;;;;;;;;;;;;;;;;;2209500;59;1203;-72
2022/09/05 05:48:35;;;;;;;;;;;;;;;;;;2209545;59;1966;-73
2022/09/05 05:51:26;;;;;;;;;;;;;;;;;;2211116;67;1132;-73
2022/09/05 05:54:03;;;;;;;;;;;;;;;;;;2209185;67;1261;-73
2022/09/05 05:56:54;;;;;;;;;;;;;;;;;;2209810;67;1972;-73
2022/09/05 05:59:49;;;;;;;;;;;;;;;;;;2209117;67;1201;-72
2022/09/05 06:02:43;;;;;;;;;;;;;;;;;;2209195;67;1131;-73
2022/09/05 06:05:26;;;;;;;;;;;;;;;;;;2205277;67;1281;-72
2022/09/05 06:08:07;;;;;;;;;;;;;;;;;;2208527;67;1314;-73
2022/09/05 06:10:54;;;;;;;;;;;;;;;;;;2208444;59;1159;-72
2022/09/05 06:13:47;;;;;;;;;;;;;;;;;;2208692;67;1301;-73
2022/09/05 06:16:48;;;;;;;;;;;;;;;;;;2208544;67;1978;-72
2022/09/05 06:19:42;;;;;;;;;;;;;;;;;;2208082;67;1311;-73
2022/09/05 06:22:34;;;;;;;;;;;;;;;;;;2208613;67;1056;-73
2022/09/05 06:25:25;;;;;;;;;;;;;;;;;;2207731;67;1256;-73
2022/09/05 06:28:07;;;;;;;;;;;;;;;;;;2209274;59;1695;-72
2022/09/05 06:30:44;;;;;;;;;;;;;;;;;;2208606;67;1010;-73
2022/09/05 06:33:26;;;;;;;;;;;;;;;;;;2209059;67;1300;-72
2022/09/05 06:36:07;;;;;;;;;;;;;;;;;;2208867;59;1924;-73
2022/09/05 06:38:49;;;;;;;;;;;;;;;;;;2208573;59;1084;-73
2022/09/05 06:41:29;;;;;;;;;;;;;;;;;;2209273;67;1220;-73
2022/09/05 06:44:18;;;;;;;;;;;;;;;;;;2208199;67;1234;-73
2022/09/05 06:46:52;;;;;;;;;;;;;;;;;;2211115;53;2063;-62
2022/09/05 06:49:28;;;;;;;;;;;;;;;;;;2210297;67;1076;-65
2022/09/05 06:52:22;;;;;;;;;;;;;;;;;;2210053;67;1211;-63
2022/09/05 06:55:14;;;;;;;;;;;;;;;;;;2205596;67;1332;-62
2022/09/05 06:58:06;;;;;;;;;;;;;;;;;;2210316;67;1935;-61
2022/09/05 07:00:46;;;;;;;;;;;;;;;;;;2210744;67;1147;-64
2022/09/05 07:03:29;;;;;;;;;;;;;;;;;;2210668;67;1246;-60
2022/09/05 07:06:05;;;;;;;;;;;;;;;;;;2209951;67;1290;-60
2022/09/05 07:08:46;;;;;;;;;;;;;;;;;;2210634;67;1094;-61
2022/09/05 07:11:21;;;;;;;;;;;;;;;;;;2210525;59;1183;-63
2022/09/05 07:14:04;;;;;;;;;;;;;;;;;;2210587;67;1076;-60
2022/09/05 07:16:42;;;;;;;;;;;;;;;;;;2210109;67;1988;-62
2022/09/05 07:19:27;;;;;;;;;;;;;;;;;;2210560;67;1178;-64
2022/09/05 07:22:21;;;;;;;;;;;;;;;;;;2209863;67;1246;-62
2022/09/05 07:24:55;;;;;;;;;;;;;;;;;;2209319;67;1795;-63
2022/09/05 07:27:32;;;;;;;;;;;;;;;;;;2210785;59;1665;-63
2022/09/05 07:30:09;;;;;;;;;;;;;;;;;;2210180;67;1210;-65
2022/09/05 07:32:44;;;;;;;;;;;;;;;;;;2206990;67;1072;-64
2022/09/05 07:35:19;;;;;;;;;;;;;;;;;;2210025;67;1231;-64
2022/09/05 07:37:58;;;;;;;;;;;;;;;;;;2210231;59;1984;-65
2022/09/05 07:40:34;;;;;;;;;;;;;;;;;;2210251;67;1071;-64
2022/09/05 07:43:09;;;;;;;;;;;;;;;;;;2209625;67;1206;-65
2022/09/05 07:45:48;;;;;;;;;;;;;;;;;;2210470;59;1207;-64
2022/09/05 07:48:24;;;;;;;;;;;;;;;;;;2210367;67;1227;-63
2022/09/05 07:50:59;;;;;;;;;;;;;;;;;;2209922;67;1116;-64
2022/09/05 07:53:33;;;;;;;;;;;;;;;;;;2210616;67;1192;-63
2022/09/05 07:56:07;;;;;;;;;;;;;;;;;;2209696;67;1915;-64
2022/09/05 07:58:42;;;;;;;;;;;;;;;;;;2210353;67;1091;-64
2022/09/05 08:01:19;;;;;;;;;;;;;;;;;;2210335;67;1179;-65
2022/09/05 08:03:56;;;;;;;;;;;;;;;;;;2210118;59;1279;-64
2022/09/05 08:06:29;;;;;;;;;;;;;;;;;;2210351;67;1250;-65
2022/09/05 08:09:05;;;;;;;;;;;;;;;;;;2210131;67;1282;-64
2022/09/05 08:11:39;;;;;;;;;;;;;;;;;;2210314;59;1224;-65
2022/09/05 08:14:16;;;;;;;;;;;;;;;;;;2210471;67;1034;-64
2022/09/05 08:16:52;;;;;;;;;;;;;;;;;;2210048;67;1929;-66
2022/09/05 08:19:42;;;;;;;;;;;;;;;;;;2210238;67;1203;-65
2022/09/05 08:22:21;;;;;;;;;;;;;;;;;;2210317;67;1822;-65
2022/09/05 08:24:59;;;;;;;;;;;;;;;;;;2210148;67;1309;-65
2022/09/05 08:27:38;;;;;;;;;;;;;;;;;;2210160;59;1681;-65
2022/09/05 08:30:11;;;;;;;;;;;;;;;;;;2210033;67;1116;-64
2022/09/05 08:32:51;;;;;;;;;;;;;;;;;;2210466;67;1097;-64
2022/09/05 08:35:27;;;;;;;;;;;;;;;;;;2210359;67;1306;-65
2022/09/05 08:38:01;;;;;;;;;;;;;;;;;;2210016;67;1931;-64
2022/09/05 08:40:38;;;;;;;;;;;;;;;;;;2210686;67;1161;-66
2022/09/05 08:43:14;;;;;;;;;;;;;;;;;;2210294;67;1142;-64
2022/09/05 08:45:53;;;;;;;;;;;;;;;;;;2209810;59;1297;-66
2022/09/05 08:48:37;;;;;;;;;;;;;;;;;;2210298;67;1179;-66
2022/09/05 08:51:17;;;;;;;;;;;;;;;;;;2209797;59;1430;-66
2022/09/05 08:54:02;;;;;;;;;;;;;;;;;;2210438;67;1196;-66
2022/09/05 08:56:40;;;;;;;;;;;;;;;;;;2210093;67;1985;-66
2022/09/05 08:59:25;;;;;;;;;;;;;;;;;;2210267;67;1213;-65
2022/09/05 09:02:08;;;;;;;;;;;;;;;;;;2210486;67;1231;-66
2022/09/05 09:04:47;;;;;;;;;;;;;;;;;;2210765;67;1195;-66
2022/09/05 09:07:26;;;;;;;;;;;;;;;;;;2210256;59;1393;-66
2022/09/05 09:10:01;;;;;;;;;;;;;;;;;;2211033;67;1218;-64
2022/09/05 09:12:55;;;;;;;;;;;;;;;;;;2211317;59;1182;-64
2022/09/05 09:15:35;;;;;;;;;;;;;;;;;;2209462;67;1413;-66
2022/09/05 09:18:14;;;;;;;;;;;;;;;;;;2210381;67;1932;-65
2022/09/05 09:20:54;;;;;;;;;;;;;;;;;;2210499;67;1219;-65
2022/09/05 09:23:41;;;;;;;;;;;;;;;;;;2210624;67;1218;-66
2022/09/05 09:26:16;;;;;;;;;;;;;;;;;;2210501;59;1642;-65
2022/09/05 09:29:01;;;;;;;;;;;;;;;;;;2210431;59;1329;-66
2022/09/05 09:31:39;;;;;;;;;;;;;;;;;;2211249;67;1106;-64
2022/09/05 09:34:20;;;;;;;;;;;;;;;;;;2211065;67;1111;-65
2022/09/05 09:37:13;;;;;;;;;;;;;;;;;;2210650;59;1993;-66
2022/09/05 09:40:01;;;;;;;;;;;;;;;;;;2210853;67;1269;-65
2022/09/05 09:42:40;;;;;;;;;;;;;;;;;;2210637;67;1088;-66
2022/09/05 09:45:25;;;;;;;;;;;;;;;;;;2210646;59;1248;-65
2022/09/05 09:48:09;;;;;;;;;;;;;;;;;;2210216;67;1286;-64
2022/09/05 09:50:48;;;;;;;;;;;;;;;;;;2210370;67;1174;-64
2022/09/05 09:53:33;;;;;;;;;;;;;;;;;;2210651;67;1176;-63
2022/09/05 09:56:26;;;;;;;;;;;;;;;;;;2210718;67;1272;-65
2022/09/05 09:59:06;;;;;;;;;;;;;;;;;;2210194;67;1988;-63
2022/09/05 10:01:51;;;;;;;;;;;;;;;;;;2210927;67;1101;-64
2022/09/05 10:04:38;;;;;;;;;;;;;;;;;;2210764;59;1246;-65
2022/09/05 10:07:29;;;;;;;;;;;;;;;;;;2209733;67;1150;-62
2022/09/05 10:10:20;;;;;;;;;;;;;;;;;;2210565;67;1219;-63
2022/09/05 10:13:20;;;;;;;;;;;;;;;;;;2210573;59;1133;-65
2022/09/05 10:16:08;;;;;;;;;;;;;;;;;;2210450;67;1258;-66
2022/09/05 10:18:53;;;;;;;;;;;;;;;;;;2210337;67;1945;-64
2022/09/05 10:21:47;;;;;;;;;;;;;;;;;;2210422;67;1195;-64
2022/09/05 10:24:34;;;;;;;;;;;;;;;;;;2210820;67;1243;-63
2022/09/05 10:27:22;;;;;;;;;;;;;;;;;;2210508;59;1618;-66
2022/09/05 10:30:06;;;;;;;;;;;;;;;;;;2210289;67;2087;-66
2022/09/05 10:32:55;;;;;;;;;;;;;;;;;;2210833;67;1023;-64
2022/09/05 10:35:33;;;;;;;;;;;;;;;;;;2211263;67;1258;-66
2022/09/05 10:38:11;;;;;;;;;;;;;;;;;;2210460;67;1916;-66
2022/09/05 10:40:46;;;;;;;;;;;;;;;;;;2211038;67;1119;-64
2022/09/05 10:43:23;;;;;;;;;;;;;;;;;;2210481;67;1177;-65
2022/09/05 10:46:05;;;;;;;;;;;;;;;;;;2210613;59;1296;-64
2022/09/05 10:48:43;;;;;;;;;;;;;;;;;;2210358;67;1119;-65
2022/09/05 10:51:19;;;;;;;;;;;;;;;;;;2210667;67;1213;-65
2022/09/05 10:53:54;;;;;;;;;;;;;;;;;;2210768;59;1470;-64
2022/09/05 10:56:31;;;;;;;;;;;;;;;;;;2210426;67;1194;-64
2022/09/05 10:59:04;;;;;;;;;;;;;;;;;;2210330;67;1994;-64
2022/09/05 11:01:42;;;;;;;;;;;;;;;;;;2210880;67;1104;-62
2022/09/05 11:04:22;;;;;;;;;;;;;;;;;;2210497;59;1308;-65
2022/09/05 11:06:56;;;;;;;;;;;;;;;;;;2209614;67;1309;-65
2022/09/05 11:09:37;;;;;;;;;;;;;;;;;;2210244;67;1106;-64
2022/09/05 11:12:18;;;;;;;;;;;;;;;;;;2210768;59;1274;-64
2022/09/05 11:14:52;;;;;;;;;;;;;;;;;;2210191;67;1083;-65
2022/09/05 11:17:34;;;;;;;;;;;;;;;;;;2210555;67;2004;-65
2022/09/05 11:20:16;;;;;;;;;;;;;;;;;;2210569;67;1266;-66
2022/09/05 11:22:51;;;;;;;;;;;;;;;;;;2210352;67;1141;-66
2022/09/05 11:25:26;;;;;;;;;;;;;;;;;;2210388;67;1290;-65
2022/09/05 11:28:02;;;;;;;;;;;;;;;;;;2210389;59;1804;-64
2022/09/05 11:30:39;;;;;;;;;;;;;;;;;;2210147;59;1109;-63
2022/09/05 11:33:26;;;;;;;;;;;;;;;;;;2210908;67;1248;-66
2022/09/05 11:36:02;;;;;;;;;;;;;;;;;;2210176;59;1290;-65
2022/09/05 11:38:47;;;;;;;;;;;;;;;;;;2210589;67;1981;-64
2022/09/05 11:41:40;;;;;;;;;;;;;;;;;;2210281;67;1256;-64
2022/09/05 11:44:37;;;;;;;;;;;;;;;;;;2210195;67;1207;-66
2022/09/05 11:47:31;;;;;;;;;;;;;;;;;;2210056;59;1277;-65
2022/09/05 11:50:24;;;;;;;;;;;;;;;;;;2210598;67;1155;-64
2022/09/05 11:53:09;;;;;;;;;;;;;;;;;;2210581;67;1056;-64
2022/09/05 11:55:55;;;;;;;;;;;;;;;;;;2209775;67;1175;-66
2022/09/05 11:58:40;;;;;;;;;;;;;;;;;;2209916;67;1931;-65
2022/09/05 12:01:17;;;;;;;;;;;;;;;;;;2210361;67;1931;-65
2022/09/05 12:04:08;;;;;;;;;;;;;;;;;;2210214;67;1216;-65
2022/09/05 12:07:04;;;;;;;;;;;;;;;;;;2204394;67;1248;-65
2022/09/05 12:09:46;;;;;;;;;;;;;;;;;;2209677;67;1092;-64
2022/09/05 12:12:25;;;;;;;;;;;;;;;;;;2210235;59;1266;-65
2022/09/05 12:15:04;;;;;;;;;;;;;;;;;;2210134;67;1336;-66
2022/09/05 12:17:45;;;;;;;;;;;;;;;;;;2210196;67;1996;-65
2022/09/05 12:20:23;;;;;;;;;;;;;;;;;;2210224;67;1263;-65
2022/09/05 12:23:04;;;;;;;;;;;;;;;;;;2210324;67;1104;-65
2022/09/05 12:25:47;;;;;;;;;;;;;;;;;;2210352;59;1286;-65
2022/09/05 12:28:23;;;;;;;;;;;;;;;;;;2210044;59;1631;-63
2022/09/05 12:31:11;;;;;;;;;;;;;;;;;;2210526;67;1080;-62
2022/09/05 12:33:47;;;;;;;;;;;;;;;;;;2210582;67;1102;-64
2022/09/05 12:36:27;;;;;;;;;;;;;;;;;;2210225;59;1267;-65
2022/09/05 12:39:04;;;;;;;;;;;;;;;;;;2210738;67;1929;-64
2022/09/05 12:41:40;;;;;;;;;;;;;;;;;;2211092;67;1085;-65
2022/09/05 12:44:35;;;;;;;;;;;;;;;;;;2210983;67;1108;-65
2022/09/05 12:47:11;;;;;;;;;;;;;;;;;;2209605;59;2271;-62
2022/09/05 12:49:47;;;;;;;;;;;;;;;;;;2210180;67;1023;-66
2022/09/05 12:52:25;;;;;;;;;;;;;;;;;;2210685;67;1272;-61
2022/09/05 12:55:08;;;;;;;;;;;;;;;;;;2210757;67;1343;-64
2022/09/05 12:57:42;;;;;;;;;;;;;;;;;;2210586;67;1094;-63
2022/09/05 13:00:17;;;;;;;;;;;;;;;;;;2210937;67;1983;-65
2022/09/05 13:02:53;;;;;;;;;;;;;;;;;;2210410;67;1316;-62
2022/09/05 13:05:33;;;;;;;;;;;;;;;;;;2210096;67;1266;-63
2022/09/05 13:08:20;;;;;;;;;;;;;;;;;;2210770;67;1073;-63
2022/09/05 13:10:58;;;;;;;;;;;;;;;;;;2210427;59;1290;-64
2022/09/05 13:13:34;;;;;;;;;;;;;;;;;;2210372;67;1105;-66
2022/09/05 13:16:09;;;;;;;;;;;;;;;;;;2210204;67;1730;-63
2022/09/05 13:18:44;;;;;;;;;;;;;;;;;;2210742;67;2008;-63
2022/09/05 13:21:20;;;;;;;;;;;;;;;;;;2211048;61;1214;-62
2022/09/05 13:24:02;;;;;;;;;;;;;;;;;;2210870;59;1148;-64
2022/09/05 13:26:39;;;;;;;;;;;;;;;;;;2210147;59;1634;-63
2022/09/05 13:29:15;;;;;;;;;;;;;;;;;;2211139;59;1631;-64
2022/09/05 13:32:03;;;;;;;;;;;;;;;;;;2210580;67;1090;-63
2022/09/05 13:34:39;;;;;;;;;;;;;;;;;;2210619;67;1075;-65
2022/09/05 13:37:17;;;;;;;;;;;;;;;;;;2210656;59;1347;-65
2022/09/05 13:39:52;;;;;;;;;;;;;;;;;;2210727;67;1933;-63
2022/09/05 13:42:31;;;;;;;;;;;;;;;;;;2210986;67;1219;-64
2022/09/05 13:45:04;;;;;;;;;;;;;;;;;;2210881;67;1223;-64
2022/09/05 13:47:52;;;;;;;;;;;;;;;;;;2210872;59;1211;-65
2022/09/05 13:50:27;;;;;;;;;;;;;;;;;;2209898;67;1467;-66
2022/09/05 13:53:03;;;;;;;;;;;;;;;;;;2210590;67;1239;-64
2022/09/05 13:55:40;;;;;;;;;;;;;;;;;;2210881;67;1255;-64
2022/09/05 13:58:22;;;;;;;;;;;;;;;;;;2210566;67;1913;-65
2022/09/05 14:01:16;;;;;;;;;;;;;;;;;;2210713;67;1955;-65
2022/09/05 14:04:04;;;;;;;;;;;;;;;;;;2210660;67;1316;-63
2022/09/05 14:06:55;;;;;;;;;;;;;;;;;;2210835;67;1266;-63
2022/09/05 14:09:40;;;;;;;;;;;;;;;;;;2210026;67;2075;-66
2022/09/05 14:12:19;;;;;;;;;;;;;;;;;;2210475;59;1236;-66
2022/09/05 14:14:58;;;;;;;;;;;;;;;;;;2210698;67;1093;-63
2022/09/05 14:17:36;;;;;;;;;;;;;;;;;;2210298;67;1098;-65
2022/09/05 14:23:06;;;;;;;;;;;;;;;;;;2210840;67;1111;-66
2022/09/05 14:25:43;;;;;;;;;;;;;;;;;;2210897;59;1378;-61
2022/09/05 14:28:22;;;;;;;;;;;;;;;;;;2210505;59;1670;-66
2022/09/05 14:31:05;;;;;;;;;;;;;;;;;;2210573;67;1063;-65
2022/09/05 14:33:44;;;;;;;;;;;;;;;;;;2210682;67;1084;-63
2022/09/05 14:36:32;;;;;;;;;;;;;;;;;;2210655;59;1330;-62
2022/09/05 14:39:21;;;;;;;;;;;;;;;;;;2210818;67;1933;-65
2022/09/05 14:42:03;;;;;;;;;;;;;;;;;;2211319;67;1115;-65
2022/09/05 14:44:53;;;;;;;;;;;;;;;;;;2210510;67;1232;-66
2022/09/05 14:47:38;;;;;;;;;;;;;;;;;;2211022;59;1162;-63
2022/09/05 14:50:22;;;;;;;;;;;;;;;;;;2210747;67;1097;-63
2022/09/05 14:53:03;;;;;;;;;;;;;;;;;;2210072;59;3845;-64
2022/09/05 14:55:36;;;;;;;;;;;;;;;;;;2210035;67;1239;-65
2022/09/05 14:58:09;;;;;;;;;;;;;;;;;;2210264;67;1052;-66
2022/09/05 15:00:55;;;;;;;;;;;;;;;;;;2210098;67;1991;-66
2022/09/05 15:03:39;;;;;;;;;;;;;;;;;;2210573;59;1231;-65
2022/09/05 15:06:18;;;;;;;;;;;;;;;;;;2210382;67;1219;-65
2022/09/05 15:09:00;;;;;;;;;;;;;;;;;;2210189;67;1250;-65
2022/09/05 15:11:35;;;;;;;;;;;;;;;;;;2210286;67;1267;-63
2022/09/05 15:14:10;;;;;;;;;;;;;;;;;;2210062;67;1166;-63
2022/09/05 15:16:57;;;;;;;;;;;;;;;;;;2209967;67;1218;-64
2022/09/05 15:19:50;;;;;;;;;;;;;;;;;;2209780;67;1978;-65
2022/09/05 15:22:25;;;;;;;;;;;;;;;;;;2210151;67;1247;-63
2022/09/05 15:25:02;;;;;;;;;;;;;;;;;;2210462;67;1321;-64
2022/09/05 15:27:35;;;;;;;;;;;;;;;;;;2209615;59;1399;-62
2022/09/05 15:30:16;;;;;;;;;;;;;;;;;;2210375;67;1266;-63
2022/09/05 15:32:50;;;;;;;;;;;;;;;;;;2210344;67;1099;-65
2022/09/05 15:35:41;;;;;;;;;;;;;;;;;;2210582;67;1219;-66
2022/09/05 15:38:24;;;;;;;;;;;;;;;;;;2210484;67;1268;-66
2022/09/05 15:41:24;;;;;;;;;;;;;;;;;;2210236;67;1929;-66
2022/09/05 15:44:02;;;;;;;;;;;;;;;;;;2210185;67;1259;-64
2022/09/05 15:46:48;;;;;;;;;;;;;;;;;;2210331;59;1213;-63
2022/09/05 15:49:30;;;;;;;;;;;;;;;;;;2209707;67;1287;-62
2022/09/05 15:52:09;;;;;;;;;;;;;;;;;;2206510;67;1217;-64
2022/09/05 15:54:49;;;;;;;;;;;;;;;;;;2210559;67;1060;-66
2022/09/05 15:57:25;;;;;;;;;;;;;;;;;;2209822;67;1318;-65
2022/09/05 15:59:59;;;;;;;;;;;;;;;;;;2210326;67;1935;-65
2022/09/05 16:02:33;;;;;;;;;;;;;;;;;;2209591;67;1080;-65
2022/09/05 16:05:09;;;;;;;;;;;;;;;;;;2210204;67;1290;-63
2022/09/05 16:07:51;;;;;;;;;;;;;;;;;;2209674;67;1132;-66
2022/09/05 16:10:25;;;;;;;;;;;;;;;;;;2210284;67;1219;-65
2022/09/05 16:12:59;;;;;;;;;;;;;;;;;;2210556;59;1310;-64
2022/09/05 16:15:35;;;;;;;;;;;;;;;;;;2210338;67;1274;-64
2022/09/05 16:18:11;;;;;;;;;;;;;;;;;;2211132;67;1082;-66
2022/09/05 16:20:47;;;;;;;;;;;;;;;;;;2210962;67;1923;-65
2022/09/05 16:23:24;;;;;;;;;;;;;;;;;;2210409;67;1213;-65
2022/09/05 16:25:59;;;;;;;;;;;;;;;;;;2211150;59;1456;-65
2022/09/05 16:28:35;;;;;;;;;;;;;;;;;;2210018;59;1911;-66
2022/09/05 16:31:14;;;;;;;;;;;;;;;;;;2210752;67;1054;-62
2022/09/05 16:33:48;;;;;;;;;;;;;;;;;;2211188;67;1132;-64
2022/09/05 16:36:26;;;;;;;;;;;;;;;;;;2210077;59;2046;-64
2022/09/05 16:39:04;;;;;;;;;;;;;;;;;;2210929;67;1195;-62
2022/09/05 16:41:39;;;;;;;;;;;;;;;;;;2211123;67;1037;-65
2022/09/05 16:44:16;;;;;;;;;;;;;;;;;;2210801;67;1086;-65
2022/09/05 16:46:55;;;;;;;;;;;;;;;;;;2210438;67;1346;-64
2022/09/05 16:49:30;;;;;;;;;;;;;;;;;;2210866;67;1243;-63
2022/09/05 16:52:07;;;;;;;;;;;;;;;;;;2210267;67;1258;-60
2022/09/05 16:54:44;;;;;;;;;;;;;;;;;;2210946;67;1068;-64
2022/09/05 16:57:19;;;;;;;;;;;;;;;;;;2210620;67;1175;-64
2022/09/05 16:59:52;;;;;;;;;;;;;;;;;;2210721;67;1988;-65
2022/09/05 17:02:28;;;;;;;;;;;;;;;;;;2211111;67;1141;-65
2022/09/05 17:05:09;;;;;;;;;;;;;;;;;;2210687;67;1910;-65
2022/09/05 17:08:02;;;;;;;;;;;;;;;;;;2210930;67;1086;-65
2022/09/05 17:10:44;;;;;;;;;;;;;;;;;;2210455;67;1222;-63
2022/09/05 17:13:32;;;;;;;;;;;;;;;;;;2210981;67;1092;-64
2022/09/05 17:16:06;;;;;;;;;;;;;;;;;;2210437;67;1318;-65
2022/09/05 17:18:40;;;;;;;;;;;;;;;;;;2210313;67;1010;-63
2022/09/05 17:21:18;;;;;;;;;;;;;;;;;;2210776;67;1927;-65
2022/09/05 17:23:53;;;;;;;;;;;;;;;;;;2210734;67;1148;-65
2022/09/05 17:26:35;;;;;;;;;;;;;;;;;;2210564;59;1597;-64
2022/09/05 17:29:11;;;;;;;;;;;;;;;;;;2210320;59;1312;-63
2022/09/05 17:31:53;;;;;;;;;;;;;;;;;;2211056;67;1062;-63
2022/09/05 17:34:39;;;;;;;;;;;;;;;;;;2210494;67;1207;-63
2022/09/05 17:37:19;;;;;;;;;;;;;;;;;;2210777;59;1279;-65
2022/09/05 17:39:57;;;;;;;;;;;;;;;;;;2210607;67;1937;-64
2022/09/05 17:42:38;;;;;;;;;;;;;;;;;;2210421;67;1026;-65
2022/09/05 17:45:16;;;;;;;;;;;;;;;;;;2211019;59;1322;-64
2022/09/05 17:47:52;;;;;;;;;;;;;;;;;;2210133;67;1272;-65
2022/09/05 17:50:40;;;;;;;;;;;;;;;;;;2210550;67;1193;-59
2022/09/05 17:53:17;;;;;;;;;;;;;;;;;;2210616;67;1896;-63
2022/09/05 17:56:08;;;;;;;;;;;;;;;;;;2210460;67;1188;-64
2022/09/05 17:58:56;;;;;;;;;;;;;;;;;;2209651;67;1057;-65
2022/09/05 18:01:33;;;;;;;;;;;;;;;;;;2210789;67;2692;-65
2022/09/05 18:04:09;;;;;;;;;;;;;;;;;;2210607;67;1323;-62
2022/09/05 18:06:44;;;;;;;;;;;;;;;;;;2210880;67;1170;-63
2022/09/05 18:09:38;;;;;;;;;;;;;;;;;;2210590;67;1346;-65
2022/09/05 18:12:14;;;;;;;;;;;;;;;;;;2209732;59;1462;-66
2022/09/05 18:14:47;;;;;;;;;;;;;;;;;;2210534;67;1207;-63
2022/09/05 18:17:51;;;;;;;;;;;;;;;;;;2210924;67;1273;-63
2022/09/05 18:20:31;;;;;;;;;;;;;;;;;;2210991;67;1916;-60
2022/09/05 18:23:12;;;;;;;;;;;;;;;;;;2210827;67;1226;-62
2022/09/05 18:25:50;;;;;;;;;;;;;;;;;;2211046;59;1362;-65
2022/09/05 18:28:24;;;;;;;;;;;;;;;;;;2210193;59;1614;-65
2022/09/05 18:30:57;;;;;;;;;;;;;;;;;;2210819;67;2489;-61
2022/09/05 18:33:30;;;;;;;;;;;;;;;;;;2211018;67;1108;-65
2022/09/05 18:36:24;;;;;;;;;;;;;;;;;;2210222;59;1290;-63
2022/09/05 18:39:12;;;;;;;;;;;;;;;;;;2210890;67;2550;-62
2022/09/05 18:41:49;;;;;;;;;;;;;;;;;;2210671;67;2337;-64
2022/09/05 18:44:24;;;;;;;;;;;;;;;;;;2210371;67;1190;-62
2022/09/05 18:46:59;;;;;;;;;;;;;;;;;;2209631;59;1310;-63
2022/09/05 18:49:35;;;;;;;;;;;;;;;;;;2210207;67;1271;-62
2022/09/05 18:52:11;;;;;;;;;;;;;;;;;;2209916;67;1131;-60
2022/09/05 18:54:45;;;;;;;;;;;;;;;;;;2210790;59;1047;-61
2022/09/05 18:57:24;;;;;;;;;;;;;;;;;;2210081;59;1196;-61
2022/09/05 19:00:01;;;;;;;;;;;;;;;;;;2210614;67;1932;-62
2022/09/05 19:02:38;;;;;;;;;;;;;;;;;;2210476;67;1072;-63
2022/09/05 19:05:15;;;;;;;;;;;;;;;;;;2210259;67;1254;-63
2022/09/05 19:07:51;;;;;;;;;;;;;;;;;;2210598;59;1719;-64
2022/09/05 19:10:27;;;;;;;;;;;;;;;;;;2210109;67;1224;-62
2022/09/05 19:13:10;;;;;;;;;;;;;;;;;;2210222;59;1231;-64